sensor_id;sensor_type;location;lat;lon;timestamp;P1;durP1;ratioP1;P2;durP2;ratioP2
13868;SDS011;7004;48.206;16.402;2023-03-01T00:02:03;36.20;;;21.87;;
13868;SDS011;7004;48.206;16.402;2023-03-01T00:04:30;34.10;;;22.40;;
13868;SDS011;7004;48.206;16.402;2023-03-01T00:06:57;36.40;;;21.80;;
13868;SDS011;7004;48.206;16.402;2023-03-01T00:09:23;40.67;;;23.10;;
13868;SDS011;7004;48.206;16.402;2023-03-01T00:11:49;36.37;;;22.53;;
13868;SDS011;7004;48.206;16.402;2023-03-01T00:14:20;36.47;;;22.23;;
13868;SDS011;7004;48.206;16.402;2023-03-01T00:16:48;42.33;;;23.40;;
13868;SDS011;7004;48.206;16.402;2023-03-01T00:19:19;34.67;;;22.33;;
13868;SDS011;7004;48.206;16.402;2023-03-01T00:21:48;43.63;;;22.47;;
13868;SDS011;7004;48.206;16.402;2023-03-01T00:24:14;37.87;;;23.13;;
13868;SDS011;7004;48.206;16.402;2023-03-01T00:26:41;44.07;;;23.67;;
13868;SDS011;7004;48.206;16.402;2023-03-01T00:29:07;36.23;;;22.43;;
13868;SDS011;7004;48.206;16.402;2023-03-01T00:31:33;37.27;;;22.57;;
13868;SDS011;7004;48.206;16.402;2023-03-01T00:34:02;38.80;;;23.57;;
13868;SDS011;7004;48.206;16.402;2023-03-01T00:36:37;36.53;;;22.73;;
13868;SDS011;7004;48.206;16.402;2023-03-01T00:39:04;36.00;;;23.60;;
13868;SDS011;7004;48.206;16.402;2023-03-01T00:41:49;36.03;;;22.07;;
13868;SDS011;7004;48.206;16.402;2023-03-01T00:44:16;38.63;;;23.20;;
13868;SDS011;7004;48.206;16.402;2023-03-01T00:46:42;41.77;;;23.40;;
13868;SDS011;7004;48.206;16.402;2023-03-01T00:49:08;34.90;;;22.50;;
13868;SDS011;7004;48.206;16.402;2023-03-01T00:51:34;34.03;;;22.33;;
13868;SDS011;7004;48.206;16.402;2023-03-01T00:54:01;34.93;;;22.67;;
13868;SDS011;7004;48.206;16.402;2023-03-01T00:56:29;33.97;;;22.10;;
13868;SDS011;7004;48.206;16.402;2023-03-01T00:58:55;34.77;;;21.77;;
13868;SDS011;7004;48.206;16.402;2023-03-01T01:01:23;36.30;;;23.20;;
13868;SDS011;7004;48.206;16.402;2023-03-01T01:04:01;36.77;;;22.33;;
13868;SDS011;7004;48.206;16.402;2023-03-01T01:06:47;37.40;;;22.97;;
13868;SDS011;7004;48.206;16.402;2023-03-01T01:09:21;39.33;;;23.47;;
13868;SDS011;7004;48.206;16.402;2023-03-01T01:11:53;36.97;;;22.20;;
13868;SDS011;7004;48.206;16.402;2023-03-01T01:14:26;37.97;;;23.47;;
13868;SDS011;7004;48.206;16.402;2023-03-01T01:17:04;35.90;;;23.57;;
13868;SDS011;7004;48.206;16.402;2023-03-01T01:19:33;38.70;;;23.87;;
13868;SDS011;7004;48.206;16.402;2023-03-01T01:22:16;37.47;;;23.93;;
13868;SDS011;7004;48.206;16.402;2023-03-01T01:24:49;37.63;;;23.17;;
13868;SDS011;7004;48.206;16.402;2023-03-01T01:27:19;36.77;;;22.87;;
13868;SDS011;7004;48.206;16.402;2023-03-01T01:29:52;40.80;;;24.17;;
13868;SDS011;7004;48.206;16.402;2023-03-01T01:32:28;38.27;;;23.60;;
13868;SDS011;7004;48.206;16.402;2023-03-01T01:35:04;39.07;;;23.80;;
13868;SDS011;7004;48.206;16.402;2023-03-01T01:37:34;41.97;;;23.53;;
13868;SDS011;7004;48.206;16.402;2023-03-01T01:40:20;39.30;;;24.17;;
13868;SDS011;7004;48.206;16.402;2023-03-01T01:43:09;42.47;;;24.80;;
13868;SDS011;7004;48.206;16.402;2023-03-01T01:49:17;42.67;;;23.43;;
13868;SDS011;7004;48.206;16.402;2023-03-01T01:51:51;39.10;;;24.80;;
13868;SDS011;7004;48.206;16.402;2023-03-01T01:54:50;36.23;;;24.17;;
13868;SDS011;7004;48.206;16.402;2023-03-01T01:57:43;35.83;;;22.67;;
13868;SDS011;7004;48.206;16.402;2023-03-01T02:00:32;45.60;;;25.70;;
13868;SDS011;7004;48.206;16.402;2023-03-01T02:08:59;39.63;;;24.27;;
13868;SDS011;7004;48.206;16.402;2023-03-01T02:11:51;42.57;;;26.20;;
13868;SDS011;7004;48.206;16.402;2023-03-01T02:14:19;40.17;;;25.10;;
13868;SDS011;7004;48.206;16.402;2023-03-01T02:16:45;42.20;;;24.30;;
13868;SDS011;7004;48.206;16.402;2023-03-01T02:19:19;46.23;;;25.83;;
13868;SDS011;7004;48.206;16.402;2023-03-01T02:22:28;44.63;;;25.40;;
13868;SDS011;7004;48.206;16.402;2023-03-01T02:30:45;40.30;;;25.80;;
13868;SDS011;7004;48.206;16.402;2023-03-01T02:33:34;41.13;;;24.83;;
13868;SDS011;7004;48.206;16.402;2023-03-01T02:36:08;44.73;;;25.80;;
13868;SDS011;7004;48.206;16.402;2023-03-01T02:38:49;41.73;;;25.90;;
13868;SDS011;7004;48.206;16.402;2023-03-01T02:41:19;40.60;;;25.70;;
13868;SDS011;7004;48.206;16.402;2023-03-01T02:43:47;41.43;;;25.40;;
13868;SDS011;7004;48.206;16.402;2023-03-01T02:46:20;41.13;;;24.30;;
13868;SDS011;7004;48.206;16.402;2023-03-01T02:48:51;44.73;;;26.23;;
13868;SDS011;7004;48.206;16.402;2023-03-01T02:57:40;45.40;;;26.43;;
13868;SDS011;7004;48.206;16.402;2023-03-01T03:00:15;40.47;;;25.30;;
13868;SDS011;7004;48.206;16.402;2023-03-01T03:03:00;45.70;;;26.43;;
13868;SDS011;7004;48.206;16.402;2023-03-01T03:05:27;45.83;;;27.47;;
13868;SDS011;7004;48.206;16.402;2023-03-01T03:08:11;42.07;;;26.70;;
13868;SDS011;7004;48.206;16.402;2023-03-01T03:10:38;43.03;;;26.17;;
13868;SDS011;7004;48.206;16.402;2023-03-01T03:13:10;43.43;;;26.93;;
13868;SDS011;7004;48.206;16.402;2023-03-01T03:15:41;39.80;;;25.77;;
13868;SDS011;7004;48.206;16.402;2023-03-01T03:18:26;44.03;;;26.63;;
13868;SDS011;7004;48.206;16.402;2023-03-01T03:20:53;44.87;;;27.40;;
13868;SDS011;7004;48.206;16.402;2023-03-01T03:23:22;46.47;;;26.60;;
13868;SDS011;7004;48.206;16.402;2023-03-01T03:25:51;45.77;;;27.00;;
13868;SDS011;7004;48.206;16.402;2023-03-01T03:28:37;46.00;;;27.40;;
13868;SDS011;7004;48.206;16.402;2023-03-01T03:31:24;44.53;;;26.73;;
13868;SDS011;7004;48.206;16.402;2023-03-01T03:33:52;44.40;;;26.37;;
13868;SDS011;7004;48.206;16.402;2023-03-01T03:36:22;45.23;;;27.00;;
13868;SDS011;7004;48.206;16.402;2023-03-01T03:38:53;46.83;;;27.23;;
13868;SDS011;7004;48.206;16.402;2023-03-01T03:41:39;44.67;;;27.23;;
13868;SDS011;7004;48.206;16.402;2023-03-01T03:44:06;42.47;;;27.40;;
13868;SDS011;7004;48.206;16.402;2023-03-01T03:46:42;42.70;;;26.93;;
13868;SDS011;7004;48.206;16.402;2023-03-01T03:49:09;43.37;;;26.60;;
13868;SDS011;7004;48.206;16.402;2023-03-01T03:51:35;45.50;;;28.40;;
13868;SDS011;7004;48.206;16.402;2023-03-01T03:54:01;43.87;;;26.43;;
13868;SDS011;7004;48.206;16.402;2023-03-01T03:56:28;44.97;;;27.30;;
13868;SDS011;7004;48.206;16.402;2023-03-01T03:58:54;44.00;;;27.30;;
13868;SDS011;7004;48.206;16.402;2023-03-01T04:01:20;46.23;;;28.10;;
13868;SDS011;7004;48.206;16.402;2023-03-01T04:04:05;41.80;;;26.63;;
13868;SDS011;7004;48.206;16.402;2023-03-01T04:06:33;43.83;;;26.30;;
13868;SDS011;7004;48.206;16.402;2023-03-01T04:09:02;44.30;;;27.53;;
13868;SDS011;7004;48.206;16.402;2023-03-01T04:11:29;47.70;;;28.40;;
13868;SDS011;7004;48.206;16.402;2023-03-01T04:13:56;46.47;;;28.83;;
13868;SDS011;7004;48.206;16.402;2023-03-01T04:16:29;45.87;;;27.37;;
13868;SDS011;7004;48.206;16.402;2023-03-01T04:18:55;44.37;;;26.53;;
13868;SDS011;7004;48.206;16.402;2023-03-01T04:21:25;43.90;;;28.07;;
13868;SDS011;7004;48.206;16.402;2023-03-01T04:23:51;44.53;;;27.27;;
13868;SDS011;7004;48.206;16.402;2023-03-01T04:26:18;44.83;;;28.00;;
13868;SDS011;7004;48.206;16.402;2023-03-01T04:28:45;47.60;;;28.10;;
13868;SDS011;7004;48.206;16.402;2023-03-01T04:31:14;46.20;;;27.90;;
13868;SDS011;7004;48.206;16.402;2023-03-01T04:36:18;44.83;;;27.17;;
13868;SDS011;7004;48.206;16.402;2023-03-01T04:38:52;44.10;;;26.73;;
13868;SDS011;7004;48.206;16.402;2023-03-01T04:41:20;52.90;;;28.87;;
13868;SDS011;7004;48.206;16.402;2023-03-01T04:43:50;43.53;;;27.27;;
13868;SDS011;7004;48.206;16.402;2023-03-01T04:46:19;45.83;;;27.80;;
13868;SDS011;7004;48.206;16.402;2023-03-01T04:48:46;44.30;;;28.40;;
13868;SDS011;7004;48.206;16.402;2023-03-01T04:51:13;45.30;;;28.63;;
13868;SDS011;7004;48.206;16.402;2023-03-01T04:53:40;46.37;;;28.50;;
13868;SDS011;7004;48.206;16.402;2023-03-01T04:56:08;47.90;;;29.40;;
13868;SDS011;7004;48.206;16.402;2023-03-01T04:58:34;46.67;;;27.83;;
13868;SDS011;7004;48.206;16.402;2023-03-01T05:01:01;46.87;;;28.43;;
13868;SDS011;7004;48.206;16.402;2023-03-01T05:03:41;46.83;;;26.97;;
13868;SDS011;7004;48.206;16.402;2023-03-01T05:06:15;45.07;;;28.07;;
13868;SDS011;7004;48.206;16.402;2023-03-01T05:08:43;46.60;;;27.93;;
13868;SDS011;7004;48.206;16.402;2023-03-01T05:11:11;47.03;;;28.10;;
13868;SDS011;7004;48.206;16.402;2023-03-01T05:13:38;44.90;;;27.00;;
13868;SDS011;7004;48.206;16.402;2023-03-01T05:16:06;46.40;;;26.97;;
13868;SDS011;7004;48.206;16.402;2023-03-01T05:18:37;48.20;;;27.47;;
13868;SDS011;7004;48.206;16.402;2023-03-01T05:21:06;51.13;;;27.13;;
13868;SDS011;7004;48.206;16.402;2023-03-01T05:23:38;49.00;;;27.37;;
13868;SDS011;7004;48.206;16.402;2023-03-01T05:26:06;47.23;;;27.43;;
13868;SDS011;7004;48.206;16.402;2023-03-01T05:28:34;44.53;;;27.40;;
13868;SDS011;7004;48.206;16.402;2023-03-01T05:31:01;44.13;;;27.23;;
13868;SDS011;7004;48.206;16.402;2023-03-01T05:33:29;47.87;;;27.53;;
13868;SDS011;7004;48.206;16.402;2023-03-01T05:35:59;45.63;;;26.83;;
13868;SDS011;7004;48.206;16.402;2023-03-01T05:38:26;43.73;;;26.33;;
13868;SDS011;7004;48.206;16.402;2023-03-01T05:40:52;45.93;;;28.23;;
13868;SDS011;7004;48.206;16.402;2023-03-01T05:43:19;46.97;;;27.83;;
13868;SDS011;7004;48.206;16.402;2023-03-01T05:45:45;45.13;;;27.27;;
13868;SDS011;7004;48.206;16.402;2023-03-01T05:48:12;44.00;;;26.80;;
13868;SDS011;7004;48.206;16.402;2023-03-01T05:50:41;44.63;;;27.43;;
13868;SDS011;7004;48.206;16.402;2023-03-01T05:53:10;48.73;;;28.20;;
13868;SDS011;7004;48.206;16.402;2023-03-01T05:55:40;46.50;;;27.53;;
13868;SDS011;7004;48.206;16.402;2023-03-01T05:58:10;45.63;;;29.10;;
13868;SDS011;7004;48.206;16.402;2023-03-01T06:00:39;50.83;;;29.27;;
13868;SDS011;7004;48.206;16.402;2023-03-01T06:03:06;45.20;;;28.07;;
13868;SDS011;7004;48.206;16.402;2023-03-01T06:05:35;47.17;;;28.13;;
13868;SDS011;7004;48.206;16.402;2023-03-01T06:08:02;45.87;;;28.33;;
13868;SDS011;7004;48.206;16.402;2023-03-01T06:10:29;48.93;;;26.80;;
13868;SDS011;7004;48.206;16.402;2023-03-01T06:12:55;42.37;;;26.80;;
13868;SDS011;7004;48.206;16.402;2023-03-01T06:15:21;44.07;;;27.20;;
13868;SDS011;7004;48.206;16.402;2023-03-01T06:17:48;46.87;;;27.87;;
13868;SDS011;7004;48.206;16.402;2023-03-01T06:20:19;50.23;;;28.53;;
13868;SDS011;7004;48.206;16.402;2023-03-01T06:22:48;46.20;;;27.73;;
13868;SDS011;7004;48.206;16.402;2023-03-01T06:25:16;49.87;;;28.07;;
13868;SDS011;7004;48.206;16.402;2023-03-01T06:27:46;47.87;;;27.70;;
13868;SDS011;7004;48.206;16.402;2023-03-01T06:32:43;45.00;;;27.10;;
13868;SDS011;7004;48.206;16.402;2023-03-01T06:35:10;45.00;;;27.97;;
13868;SDS011;7004;48.206;16.402;2023-03-01T06:37:39;44.57;;;27.73;;
13868;SDS011;7004;48.206;16.402;2023-03-01T06:40:07;50.70;;;27.53;;
13868;SDS011;7004;48.206;16.402;2023-03-01T06:42:37;45.10;;;26.10;;
13868;SDS011;7004;48.206;16.402;2023-03-01T06:45:05;42.87;;;27.17;;
13868;SDS011;7004;48.206;16.402;2023-03-01T06:47:33;41.57;;;26.53;;
13868;SDS011;7004;48.206;16.402;2023-03-01T06:50:00;52.23;;;26.77;;
13868;SDS011;7004;48.206;16.402;2023-03-01T06:52:28;40.97;;;26.40;;
13868;SDS011;7004;48.206;16.402;2023-03-01T06:54:55;44.20;;;26.57;;
13868;SDS011;7004;48.206;16.402;2023-03-01T06:57:21;45.27;;;27.73;;
13868;SDS011;7004;48.206;16.402;2023-03-01T06:59:47;42.77;;;27.37;;
13868;SDS011;7004;48.206;16.402;2023-03-01T07:02:14;45.27;;;27.33;;
13868;SDS011;7004;48.206;16.402;2023-03-01T07:04:41;41.40;;;26.33;;
13868;SDS011;7004;48.206;16.402;2023-03-01T07:07:08;48.40;;;26.17;;
13868;SDS011;7004;48.206;16.402;2023-03-01T07:09:35;49.90;;;26.77;;
13868;SDS011;7004;48.206;16.402;2023-03-01T07:12:01;42.43;;;26.47;;
13868;SDS011;7004;48.206;16.402;2023-03-01T07:14:27;42.00;;;25.77;;
13868;SDS011;7004;48.206;16.402;2023-03-01T07:16:53;42.57;;;27.67;;
13868;SDS011;7004;48.206;16.402;2023-03-01T07:19:20;48.40;;;26.37;;
13868;SDS011;7004;48.206;16.402;2023-03-01T07:21:48;48.17;;;27.57;;
13868;SDS011;7004;48.206;16.402;2023-03-01T07:24:14;42.63;;;27.27;;
13868;SDS011;7004;48.206;16.402;2023-03-01T07:26:40;46.27;;;27.70;;
13868;SDS011;7004;48.206;16.402;2023-03-01T07:29:06;44.73;;;26.90;;
13868;SDS011;7004;48.206;16.402;2023-03-01T07:31:35;48.17;;;27.50;;
13868;SDS011;7004;48.206;16.402;2023-03-01T07:34:02;43.53;;;25.77;;
13868;SDS011;7004;48.206;16.402;2023-03-01T07:36:28;42.80;;;27.27;;
13868;SDS011;7004;48.206;16.402;2023-03-01T07:38:54;44.93;;;26.93;;
13868;SDS011;7004;48.206;16.402;2023-03-01T07:41:21;43.50;;;27.07;;
13868;SDS011;7004;48.206;16.402;2023-03-01T07:43:47;45.33;;;26.73;;
13868;SDS011;7004;48.206;16.402;2023-03-01T07:46:13;48.50;;;27.87;;
13868;SDS011;7004;48.206;16.402;2023-03-01T07:48:39;45.10;;;27.07;;
13868;SDS011;7004;48.206;16.402;2023-03-01T07:51:06;48.73;;;28.33;;
13868;SDS011;7004;48.206;16.402;2023-03-01T07:53:33;46.60;;;26.60;;
13868;SDS011;7004;48.206;16.402;2023-03-01T07:56:03;43.90;;;27.40;;
13868;SDS011;7004;48.206;16.402;2023-03-01T07:58:40;42.03;;;27.23;;
13868;SDS011;7004;48.206;16.402;2023-03-01T08:01:08;47.50;;;27.77;;
13868;SDS011;7004;48.206;16.402;2023-03-01T08:03:41;41.87;;;27.13;;
13868;SDS011;7004;48.206;16.402;2023-03-01T08:06:09;47.93;;;28.83;;
13868;SDS011;7004;48.206;16.402;2023-03-01T08:08:37;44.57;;;27.07;;
13868;SDS011;7004;48.206;16.402;2023-03-01T08:11:04;53.30;;;27.10;;
13868;SDS011;7004;48.206;16.402;2023-03-01T08:13:32;45.40;;;26.73;;
13868;SDS011;7004;48.206;16.402;2023-03-01T08:16:06;46.97;;;27.57;;
13868;SDS011;7004;48.206;16.402;2023-03-01T08:18:37;47.10;;;27.67;;
13868;SDS011;7004;48.206;16.402;2023-03-01T08:21:04;40.50;;;25.60;;
13868;SDS011;7004;48.206;16.402;2023-03-01T08:23:32;43.80;;;26.63;;
13868;SDS011;7004;48.206;16.402;2023-03-01T08:28:37;39.80;;;26.63;;
13868;SDS011;7004;48.206;16.402;2023-03-01T08:33:56;39.60;;;25.73;;
13868;SDS011;7004;48.206;16.402;2023-03-01T08:36:26;42.40;;;26.47;;
13868;SDS011;7004;48.206;16.402;2023-03-01T08:38:58;42.33;;;26.77;;
13868;SDS011;7004;48.206;16.402;2023-03-01T08:41:26;45.57;;;27.10;;
13868;SDS011;7004;48.206;16.402;2023-03-01T08:43:52;47.33;;;27.23;;
13868;SDS011;7004;48.206;16.402;2023-03-01T08:46:33;42.43;;;27.40;;
13868;SDS011;7004;48.206;16.402;2023-03-01T08:49:03;41.30;;;26.33;;
13868;SDS011;7004;48.206;16.402;2023-03-01T08:51:32;43.30;;;26.30;;
13868;SDS011;7004;48.206;16.402;2023-03-01T08:54:20;41.63;;;27.53;;
13868;SDS011;7004;48.206;16.402;2023-03-01T08:56:47;41.43;;;27.10;;
13868;SDS011;7004;48.206;16.402;2023-03-01T08:59:14;46.83;;;27.63;;
13868;SDS011;7004;48.206;16.402;2023-03-01T09:01:42;44.50;;;25.97;;
13868;SDS011;7004;48.206;16.402;2023-03-01T09:04:09;43.80;;;27.30;;
13868;SDS011;7004;48.206;16.402;2023-03-01T09:06:36;46.37;;;26.83;;
13868;SDS011;7004;48.206;16.402;2023-03-01T09:09:03;46.20;;;26.70;;
13868;SDS011;7004;48.206;16.402;2023-03-01T09:11:30;42.17;;;27.07;;
13868;SDS011;7004;48.206;16.402;2023-03-01T09:13:57;40.73;;;25.17;;
13868;SDS011;7004;48.206;16.402;2023-03-01T09:16:23;45.07;;;27.83;;
13868;SDS011;7004;48.206;16.402;2023-03-01T09:18:50;44.17;;;26.07;;
13868;SDS011;7004;48.206;16.402;2023-03-01T09:21:19;41.07;;;26.60;;
13868;SDS011;7004;48.206;16.402;2023-03-01T09:23:48;45.20;;;28.30;;
13868;SDS011;7004;48.206;16.402;2023-03-01T09:26:16;40.80;;;26.37;;
13868;SDS011;7004;48.206;16.402;2023-03-01T09:28:46;40.10;;;25.90;;
13868;SDS011;7004;48.206;16.402;2023-03-01T09:31:15;43.57;;;26.17;;
13868;SDS011;7004;48.206;16.402;2023-03-01T09:33:42;39.27;;;25.87;;
13868;SDS011;7004;48.206;16.402;2023-03-01T09:36:13;43.37;;;24.47;;
13868;SDS011;7004;48.206;16.402;2023-03-01T09:38:46;40.97;;;26.20;;
13868;SDS011;7004;48.206;16.402;2023-03-01T09:47:28;41.60;;;25.37;;
13868;SDS011;7004;48.206;16.402;2023-03-01T09:50:06;38.60;;;23.90;;
13868;SDS011;7004;48.206;16.402;2023-03-01T10:01:48;39.30;;;24.97;;
13868;SDS011;7004;48.206;16.402;2023-03-01T10:10:44;33.60;;;23.70;;
13868;SDS011;7004;48.206;16.402;2023-03-01T10:13:27;33.67;;;22.13;;
13868;SDS011;7004;48.206;16.402;2023-03-01T10:16:10;39.50;;;23.03;;
13868;SDS011;7004;48.206;16.402;2023-03-01T10:18:51;34.97;;;22.50;;
13868;SDS011;7004;48.206;16.402;2023-03-01T10:21:23;36.17;;;23.07;;
13868;SDS011;7004;48.206;16.402;2023-03-01T10:23:52;37.13;;;24.17;;
13868;SDS011;7004;48.206;16.402;2023-03-01T10:26:38;33.90;;;22.97;;
13868;SDS011;7004;48.206;16.402;2023-03-01T10:29:34;36.07;;;23.03;;
13868;SDS011;7004;48.206;16.402;2023-03-01T10:32:11;36.17;;;22.77;;
13868;SDS011;7004;48.206;16.402;2023-03-01T10:34:37;33.77;;;23.63;;
13868;SDS011;7004;48.206;16.402;2023-03-01T10:42:35;47.73;;;31.23;;
13868;SDS011;7004;48.206;16.402;2023-03-01T10:48:04;33.77;;;24.03;;
13868;SDS011;7004;48.206;16.402;2023-03-01T10:50:34;33.23;;;23.47;;
13868;SDS011;7004;48.206;16.402;2023-03-01T10:53:02;37.50;;;23.50;;
13868;SDS011;7004;48.206;16.402;2023-03-01T10:55:36;31.50;;;23.10;;
13868;SDS011;7004;48.206;16.402;2023-03-01T11:00:53;32.70;;;23.77;;
13868;SDS011;7004;48.206;16.402;2023-03-01T11:03:33;37.13;;;24.40;;
13868;SDS011;7004;48.206;16.402;2023-03-01T11:06:03;41.37;;;25.10;;
13868;SDS011;7004;48.206;16.402;2023-03-01T11:08:37;37.67;;;24.30;;
13868;SDS011;7004;48.206;16.402;2023-03-01T11:16:47;28.23;;;20.53;;
13868;SDS011;7004;48.206;16.402;2023-03-01T11:19:24;29.10;;;19.77;;
13868;SDS011;7004;48.206;16.402;2023-03-01T11:21:55;35.47;;;22.40;;
13868;SDS011;7004;48.206;16.402;2023-03-01T11:24:39;30.37;;;19.63;;
13868;SDS011;7004;48.206;16.402;2023-03-01T11:29:53;29.30;;;20.27;;
13868;SDS011;7004;48.206;16.402;2023-03-01T11:36:05;31.03;;;21.50;;
13868;SDS011;7004;48.206;16.402;2023-03-01T11:38:45;27.30;;;19.93;;
13868;SDS011;7004;48.206;16.402;2023-03-01T11:41:23;28.43;;;19.60;;
13868;SDS011;7004;48.206;16.402;2023-03-01T11:43:59;30.90;;;21.63;;
13868;SDS011;7004;48.206;16.402;2023-03-01T11:52:11;29.60;;;20.87;;
13868;SDS011;7004;48.206;16.402;2023-03-01T11:55:09;32.63;;;20.80;;
13868;SDS011;7004;48.206;16.402;2023-03-01T12:07:01;24.07;;;17.67;;
13868;SDS011;7004;48.206;16.402;2023-03-01T12:10:15;28.90;;;19.53;;
13868;SDS011;7004;48.206;16.402;2023-03-01T12:13:05;25.77;;;18.77;;
13868;SDS011;7004;48.206;16.402;2023-03-01T12:15:49;24.97;;;18.53;;
13868;SDS011;7004;48.206;16.402;2023-03-01T12:29:39;24.03;;;16.73;;
13868;SDS011;7004;48.206;16.402;2023-03-01T12:35:02;24.20;;;17.13;;
13868;SDS011;7004;48.206;16.402;2023-03-01T12:37:51;23.33;;;16.83;;
13868;SDS011;7004;48.206;16.402;2023-03-01T12:40:31;23.10;;;16.67;;
13868;SDS011;7004;48.206;16.402;2023-03-01T12:43:20;25.37;;;16.83;;
13868;SDS011;7004;48.206;16.402;2023-03-01T12:46:25;21.87;;;16.03;;
13868;SDS011;7004;48.206;16.402;2023-03-01T12:49:13;24.37;;;18.20;;
13868;SDS011;7004;48.206;16.402;2023-03-01T12:52:19;28.60;;;19.20;;
13868;SDS011;7004;48.206;16.402;2023-03-01T12:54:55;25.53;;;18.20;;
13868;SDS011;7004;48.206;16.402;2023-03-01T12:57:29;24.10;;;18.53;;
13868;SDS011;7004;48.206;16.402;2023-03-01T13:00:26;25.17;;;18.27;;
13868;SDS011;7004;48.206;16.402;2023-03-01T13:08:36;27.23;;;19.53;;
13868;SDS011;7004;48.206;16.402;2023-03-01T13:11:12;27.43;;;19.30;;
13868;SDS011;7004;48.206;16.402;2023-03-01T13:13:48;28.07;;;18.80;;
13868;SDS011;7004;48.206;16.402;2023-03-01T13:17:02;26.07;;;17.63;;
13868;SDS011;7004;48.206;16.402;2023-03-01T13:21:57;26.40;;;18.37;;
13868;SDS011;7004;48.206;16.402;2023-03-01T13:27:21;22.13;;;17.43;;
13868;SDS011;7004;48.206;16.402;2023-03-01T13:29:58;26.17;;;17.63;;
13868;SDS011;7004;48.206;16.402;2023-03-01T13:32:29;23.83;;;17.17;;
13868;SDS011;7004;48.206;16.402;2023-03-01T13:44:13;23.57;;;17.13;;
13868;SDS011;7004;48.206;16.402;2023-03-01T13:46:50;23.73;;;18.43;;
13868;SDS011;7004;48.206;16.402;2023-03-01T13:49:45;26.90;;;18.67;;
13868;SDS011;7004;48.206;16.402;2023-03-01T13:57:58;25.93;;;18.63;;
13868;SDS011;7004;48.206;16.402;2023-03-01T14:00:37;23.13;;;18.40;;
13868;SDS011;7004;48.206;16.402;2023-03-01T14:08:32;25.73;;;18.50;;
13868;SDS011;7004;48.206;16.402;2023-03-01T14:14:09;24.97;;;17.87;;
13868;SDS011;7004;48.206;16.402;2023-03-01T14:23:01;29.83;;;18.70;;
13868;SDS011;7004;48.206;16.402;2023-03-01T14:25:35;24.53;;;18.37;;
13868;SDS011;7004;48.206;16.402;2023-03-01T14:28:14;24.37;;;18.53;;
13868;SDS011;7004;48.206;16.402;2023-03-01T14:30:50;25.20;;;18.67;;
13868;SDS011;7004;48.206;16.402;2023-03-01T14:36:00;23.87;;;17.40;;
13868;SDS011;7004;48.206;16.402;2023-03-01T14:43:33;27.23;;;18.33;;
13868;SDS011;7004;48.206;16.402;2023-03-01T14:46:00;25.37;;;18.57;;
13868;SDS011;7004;48.206;16.402;2023-03-01T14:48:27;27.53;;;19.07;;
13868;SDS011;7004;48.206;16.402;2023-03-01T14:50:54;26.23;;;20.00;;
13868;SDS011;7004;48.206;16.402;2023-03-01T14:53:22;28.43;;;19.60;;
13868;SDS011;7004;48.206;16.402;2023-03-01T14:55:53;28.87;;;20.83;;
13868;SDS011;7004;48.206;16.402;2023-03-01T14:58:27;30.23;;;20.70;;
13868;SDS011;7004;48.206;16.402;2023-03-01T15:03:27;29.60;;;19.87;;
13868;SDS011;7004;48.206;16.402;2023-03-01T15:06:00;27.90;;;20.20;;
13868;SDS011;7004;48.206;16.402;2023-03-01T15:08:29;29.27;;;20.60;;
13868;SDS011;7004;48.206;16.402;2023-03-01T15:13:31;31.67;;;20.63;;
13868;SDS011;7004;48.206;16.402;2023-03-01T15:16:04;29.60;;;21.63;;
13868;SDS011;7004;48.206;16.402;2023-03-01T15:18:35;31.23;;;20.33;;
13868;SDS011;7004;48.206;16.402;2023-03-01T15:21:07;30.73;;;20.13;;
13868;SDS011;7004;48.206;16.402;2023-03-01T15:23:48;30.70;;;21.30;;
13868;SDS011;7004;48.206;16.402;2023-03-01T15:26:22;33.47;;;21.63;;
13868;SDS011;7004;48.206;16.402;2023-03-01T15:28:55;30.57;;;20.57;;
13868;SDS011;7004;48.206;16.402;2023-03-01T15:31:25;28.47;;;20.60;;
13868;SDS011;7004;48.206;16.402;2023-03-01T15:36:49;29.37;;;20.83;;
13868;SDS011;7004;48.206;16.402;2023-03-01T15:39:53;29.50;;;20.83;;
13868;SDS011;7004;48.206;16.402;2023-03-01T15:48:17;28.47;;;19.43;;
13868;SDS011;7004;48.206;16.402;2023-03-01T15:50:44;29.50;;;19.93;;
13868;SDS011;7004;48.206;16.402;2023-03-01T15:53:23;29.23;;;19.03;;
13868;SDS011;7004;48.206;16.402;2023-03-01T15:55:52;29.17;;;19.60;;
13868;SDS011;7004;48.206;16.402;2023-03-01T15:58:23;30.77;;;21.00;;
13868;SDS011;7004;48.206;16.402;2023-03-01T16:00:51;28.77;;;19.60;;
13868;SDS011;7004;48.206;16.402;2023-03-01T16:03:21;30.60;;;19.70;;
13868;SDS011;7004;48.206;16.402;2023-03-01T16:05:49;29.93;;;19.70;;
13868;SDS011;7004;48.206;16.402;2023-03-01T16:08:16;27.03;;;19.03;;
13868;SDS011;7004;48.206;16.402;2023-03-01T16:10:45;29.70;;;19.47;;
13868;SDS011;7004;48.206;16.402;2023-03-01T16:13:13;28.53;;;19.33;;
13868;SDS011;7004;48.206;16.402;2023-03-01T16:15:39;32.20;;;18.93;;
13868;SDS011;7004;48.206;16.402;2023-03-01T16:18:06;27.97;;;19.37;;
13868;SDS011;7004;48.206;16.402;2023-03-01T16:20:35;29.10;;;19.00;;
13868;SDS011;7004;48.206;16.402;2023-03-01T16:23:03;32.23;;;19.67;;
13868;SDS011;7004;48.206;16.402;2023-03-01T16:25:33;31.80;;;19.43;;
13868;SDS011;7004;48.206;16.402;2023-03-01T16:28:01;30.47;;;19.43;;
13868;SDS011;7004;48.206;16.402;2023-03-01T16:30:34;27.07;;;18.10;;
13868;SDS011;7004;48.206;16.402;2023-03-01T16:33:01;25.47;;;18.23;;
13868;SDS011;7004;48.206;16.402;2023-03-01T16:35:27;28.17;;;19.33;;
13868;SDS011;7004;48.206;16.402;2023-03-01T16:37:54;27.33;;;19.23;;
13868;SDS011;7004;48.206;16.402;2023-03-01T16:40:25;29.97;;;20.03;;
13868;SDS011;7004;48.206;16.402;2023-03-01T16:42:54;31.80;;;18.70;;
13868;SDS011;7004;48.206;16.402;2023-03-01T16:45:25;27.07;;;18.93;;
13868;SDS011;7004;48.206;16.402;2023-03-01T16:48:01;30.03;;;18.93;;
13868;SDS011;7004;48.206;16.402;2023-03-01T16:50:28;27.40;;;18.60;;
13868;SDS011;7004;48.206;16.402;2023-03-01T16:52:54;31.07;;;18.73;;
13868;SDS011;7004;48.206;16.402;2023-03-01T16:55:21;30.37;;;19.30;;
13868;SDS011;7004;48.206;16.402;2023-03-01T16:57:47;28.27;;;18.47;;
13868;SDS011;7004;48.206;16.402;2023-03-01T17:00:13;30.00;;;19.70;;
13868;SDS011;7004;48.206;16.402;2023-03-01T17:02:41;32.23;;;18.17;;
13868;SDS011;7004;48.206;16.402;2023-03-01T17:05:08;28.83;;;19.67;;
13868;SDS011;7004;48.206;16.402;2023-03-01T17:07:37;29.47;;;18.57;;
13868;SDS011;7004;48.206;16.402;2023-03-01T17:10:05;30.20;;;18.40;;
13868;SDS011;7004;48.206;16.402;2023-03-01T17:12:35;30.23;;;19.27;;
13868;SDS011;7004;48.206;16.402;2023-03-01T17:15:02;27.00;;;17.60;;
13868;SDS011;7004;48.206;16.402;2023-03-01T17:17:30;29.17;;;19.07;;
13868;SDS011;7004;48.206;16.402;2023-03-01T17:19:57;31.43;;;18.20;;
13868;SDS011;7004;48.206;16.402;2023-03-01T17:22:23;31.43;;;19.03;;
13868;SDS011;7004;48.206;16.402;2023-03-01T17:24:50;27.33;;;17.87;;
13868;SDS011;7004;48.206;16.402;2023-03-01T17:27:16;35.43;;;18.23;;
13868;SDS011;7004;48.206;16.402;2023-03-01T17:29:43;32.53;;;18.87;;
13868;SDS011;7004;48.206;16.402;2023-03-01T17:32:10;29.47;;;18.27;;
13868;SDS011;7004;48.206;16.402;2023-03-01T17:34:38;25.77;;;19.00;;
13868;SDS011;7004;48.206;16.402;2023-03-01T17:37:05;27.27;;;17.90;;